createdAt,value
2022-11-07T00:06:21.148Z,3.83
2022-11-07T00:11:53.233Z,3.83
2022-11-07T00:17:25.093Z,3.83
2022-11-07T00:22:56.797Z,3.83
2022-11-07T00:28:28.552Z,3.83
2022-11-07T00:34:00.378Z,3.83
2022-11-07T00:39:32.168Z,3.83
2022-11-07T00:50:33.325Z,3.83
2022-11-07T00:56:05.310Z,3.83
2022-11-07T01:01:37.706Z,3.83
2022-11-07T01:07:09.339Z,3.83
2022-11-07T01:12:41.154Z,3.83
2022-11-07T01:18:12.511Z,3.83
2022-11-07T01:23:43.966Z,3.86
2022-11-07T01:29:16.191Z,3.86
2022-11-07T01:34:52.291Z,3.83
2022-11-07T01:40:23.996Z,3.83
2022-11-07T01:45:55.805Z,3.83
2022-11-07T01:51:27.610Z,3.83
2022-11-07T01:57:02.879Z,3.83
2022-11-07T02:02:36.345Z,3.83
2022-11-07T02:08:09.609Z,3.86
2022-11-07T02:13:42.775Z,3.83
2022-11-07T02:19:16.500Z,3.83
2022-11-07T02:24:48.299Z,3.83
2022-11-07T02:30:20.298Z,3.83
2022-11-07T02:35:53.566Z,3.83
2022-11-07T02:41:25.440Z,3.83
2022-11-07T02:46:58.841Z,3.83
2022-11-07T02:52:32.138Z,3.83
2022-11-07T02:58:04.371Z,3.83
2022-11-07T03:03:39.633Z,3.83
2022-11-07T03:09:14.874Z,3.83
2022-11-07T03:14:48.053Z,3.79
2022-11-07T03:20:19.863Z,3.79
2022-11-07T03:25:52.052Z,3.79
2022-11-07T03:31:23.924Z,3.76
2022-11-07T03:36:58.966Z,3.76
2022-11-07T03:42:32.491Z,3.76
2022-11-07T03:48:04.688Z,3.76
2022-11-07T03:53:38.213Z,3.76
2022-11-07T03:59:10.688Z,3.73
2022-11-07T04:04:42.749Z,3.73
2022-11-07T04:10:15.005Z,3.76
2022-11-07T04:15:46.635Z,3.73
2022-11-07T04:21:18.592Z,3.73
2022-11-07T04:26:50.332Z,3.73
2022-11-07T04:32:22.227Z,3.73
2022-11-07T04:37:54.319Z,3.69
2022-11-07T04:43:26.435Z,3.73
2022-11-07T04:48:58.498Z,3.69
2022-11-07T04:54:30.284Z,3.69
2022-11-07T05:00:03.514Z,3.66
2022-11-07T05:05:35.871Z,3.69
2022-11-07T05:11:09.578Z,3.66
2022-11-07T05:16:44.675Z,3.66
2022-11-07T05:22:16.732Z,3.66
2022-11-07T05:27:48.958Z,3.66
2022-11-07T05:33:21.035Z,3.62
2022-11-07T05:38:52.921Z,3.66
2022-11-07T05:44:25.500Z,3.62
2022-11-07T05:49:57.319Z,3.62
2022-11-07T05:55:29.056Z,3.62
2022-11-07T06:01:00.890Z,3.62
2022-11-07T06:06:32.727Z,3.59
2022-11-07T06:17:34.900Z,3.59
2022-11-07T06:23:06.768Z,3.59
2022-11-07T06:28:38.647Z,3.59
2022-11-07T06:34:10.622Z,3.59
2022-11-07T06:39:42.385Z,3.62
2022-11-07T06:45:14.888Z,3.62
2022-11-07T06:50:47.034Z,3.66
2022-11-07T06:56:18.794Z,3.73
2022-11-07T07:01:50.780Z,3.76
2022-11-07T07:07:23.060Z,3.83
2022-11-07T07:12:55.320Z,3.90
2022-11-07T07:18:27.562Z,3.96
2022-11-07T07:23:59.828Z,4.00
2022-11-07T07:29:31.956Z,4.06
2022-11-07T07:35:04.008Z,4.13
2022-11-07T07:40:36.815Z,4.17
2022-11-07T07:46:08.957Z,4.20
2022-11-07T07:51:40.992Z,4.23
2022-11-07T07:57:13.353Z,4.30
2022-11-07T08:02:47.987Z,4.30
2022-11-07T08:08:20.075Z,4.34
2022-11-07T08:13:52.256Z,4.37
2022-11-07T08:19:24.263Z,4.40
2022-11-07T08:24:59.019Z,4.44
2022-11-07T08:30:31.196Z,4.44
2022-11-07T08:36:03.461Z,4.47
2022-11-07T08:41:35.800Z,4.47
2022-11-07T08:47:08.704Z,4.50
2022-11-07T08:52:39.936Z,4.54
2022-11-07T08:58:11.705Z,4.57
2022-11-07T09:03:48.675Z,4.57
2022-11-07T09:09:16.748Z,4.57
2022-11-07T09:14:47.147Z,4.57
2022-11-07T09:20:18.865Z,4.57
2022-11-07T09:25:50.693Z,4.57
2022-11-07T09:31:22.256Z,4.57
2022-11-07T09:36:54.318Z,4.57
2022-11-07T09:42:26.433Z,4.54
2022-11-07T09:53:30.640Z,4.54
2022-11-07T09:59:03.034Z,4.54
2022-11-07T10:04:35.129Z,4.54
2022-11-07T10:10:06.928Z,4.57
2022-11-07T10:15:38.670Z,4.57
2022-11-07T10:21:36.644Z,4.57
2022-11-07T10:26:42.698Z,4.54
2022-11-07T10:32:14.539Z,4.57
2022-11-07T10:37:46.775Z,4.54
2022-11-07T10:43:19.115Z,4.54
2022-11-07T10:48:51.719Z,4.54
2022-11-07T10:54:23.343Z,4.54
2022-11-07T11:00:01.121Z,4.54
2022-11-07T11:05:32.907Z,4.57
2022-11-07T11:11:04.740Z,4.54
2022-11-07T11:16:36.751Z,4.57
2022-11-07T11:22:09.758Z,4.57
2022-11-07T11:24:21.467Z,4.57
2022-11-07T11:30:01.601Z,4.54
2022-11-07T11:35:36.346Z,4.50
2022-11-07T11:41:10.293Z,4.47
2022-11-07T11:46:37.024Z,4.47
2022-11-07T11:52:08.907Z,4.47
2022-11-07T11:57:40.985Z,4.47
2022-11-07T12:03:12.784Z,4.47
2022-11-07T12:08:44.634Z,4.47
2022-11-07T12:14:18.497Z,4.47
2022-11-07T12:19:50.632Z,4.47
2022-11-07T12:25:22.312Z,4.47
2022-11-07T12:30:54.102Z,4.47
2022-11-07T12:36:31.947Z,4.47
2022-11-07T12:42:04.302Z,4.47
2022-11-07T12:53:14.631Z,4.50
2022-11-07T12:58:46.398Z,4.50
2022-11-07T13:04:18.140Z,4.50
2022-11-07T13:09:49.751Z,4.50
2022-11-07T13:15:21.813Z,4.54
2022-11-07T13:20:59.197Z,4.50
2022-11-07T13:32:03.028Z,4.47
2022-11-07T13:37:34.632Z,4.47
2022-11-07T13:43:06.532Z,4.50
2022-11-07T13:48:38.635Z,4.47
2022-11-07T13:54:10.543Z,4.47
2022-11-07T13:59:42.348Z,4.47
2022-11-07T14:05:16.873Z,4.44
2022-11-07T14:10:46.021Z,4.44
2022-11-07T14:16:17.948Z,4.40
2022-11-07T14:21:50.018Z,4.40
2022-11-07T14:27:22.184Z,4.40
2022-11-07T14:43:57.808Z,4.37
2022-11-07T14:49:29.883Z,4.37
2022-11-07T14:55:01.727Z,4.34
2022-11-07T15:00:33.857Z,4.30
2022-11-07T15:06:05.671Z,4.30
2022-11-07T15:11:37.724Z,4.27
2022-11-07T15:22:41.321Z,4.23
2022-11-07T15:33:45.418Z,4.20
2022-11-07T15:39:17.151Z,4.17
2022-11-07T15:50:20.509Z,4.13
2022-11-07T15:55:58.446Z,4.13
2022-11-07T16:01:32.376Z,4.10
2022-11-07T16:12:38.473Z,4.06
2022-11-07T16:18:12.863Z,4.03
2022-11-07T16:23:44.653Z,4.03
2022-11-07T16:29:17.066Z,4.00
2022-11-07T16:45:53.579Z,4.00
2022-11-07T16:51:25.676Z,3.96
2022-11-07T16:56:57.716Z,3.96
2022-11-07T17:02:31.019Z,3.96
2022-11-07T17:08:02.903Z,3.96
2022-11-07T17:13:35.167Z,3.96
2022-11-07T17:19:07.316Z,3.96
2022-11-07T17:24:39.941Z,3.96
2022-11-07T17:30:11.949Z,3.96
2022-11-07T17:35:44.277Z,3.96
2022-11-07T17:41:16.362Z,3.96
2022-11-07T17:46:48.139Z,3.96
2022-11-07T17:52:20.409Z,3.96
2022-11-07T17:57:52.809Z,3.96
2022-11-07T18:03:24.955Z,3.96
2022-11-07T18:08:57.718Z,3.93
2022-11-07T18:14:29.427Z,3.93
2022-11-07T18:20:01.342Z,3.93
2022-11-07T18:25:33.562Z,3.93
2022-11-07T18:31:06.061Z,3.90
2022-11-07T18:36:38.406Z,3.90
2022-11-07T18:42:10.607Z,3.90
2022-11-07T18:47:42.861Z,3.86
2022-11-07T18:53:14.646Z,3.86
2022-11-07T18:58:46.826Z,3.86
2022-11-07T19:04:18.831Z,3.83
2022-11-07T19:09:50.962Z,3.83
2022-11-07T19:15:23.137Z,3.83
2022-11-07T19:20:55.169Z,3.83
2022-11-07T19:26:26.972Z,3.79
2022-11-07T19:31:59.022Z,3.79
2022-11-07T19:37:31.025Z,3.76
2022-11-07T19:43:03.128Z,3.76
2022-11-07T19:48:35.462Z,3.76
2022-11-07T19:54:07.619Z,3.76
2022-11-07T19:59:39.810Z,3.73
2022-11-07T20:05:11.555Z,3.73
2022-11-07T20:10:43.104Z,3.73
2022-11-07T20:16:15.128Z,3.73
2022-11-07T20:21:46.983Z,3.73
2022-11-07T20:27:18.963Z,3.69
2022-11-07T20:32:50.809Z,3.69
2022-11-07T20:43:55.290Z,3.69
2022-11-07T20:49:27.483Z,3.69
2022-11-07T20:54:59.525Z,3.66
2022-11-07T21:00:31.518Z,3.66
2022-11-07T21:06:03.194Z,3.66
2022-11-07T21:11:35.273Z,3.66
2022-11-07T21:17:07.552Z,3.66
2022-11-07T21:22:39.549Z,3.66
2022-11-07T21:28:11.469Z,3.66
2022-11-07T21:33:43.338Z,3.66
2022-11-07T21:39:15.489Z,3.62
2022-11-07T21:44:47.653Z,3.62
2022-11-07T21:50:42.906Z,3.62
2022-11-07T21:55:52.035Z,3.62
2022-11-07T22:01:24.141Z,3.62
2022-11-07T22:06:56.104Z,3.62
2022-11-07T22:12:28.458Z,3.59
2022-11-07T22:18:00.563Z,3.59
2022-11-07T22:23:32.431Z,3.59
2022-11-07T22:29:04.572Z,3.59
2022-11-07T22:34:36.224Z,3.59
2022-11-07T22:40:10.550Z,3.59
2022-11-07T22:45:42.794Z,3.59
2022-11-07T22:51:14.598Z,3.56
2022-11-07T22:56:46.658Z,3.56
2022-11-07T23:02:18.459Z,3.56
2022-11-07T23:07:50.413Z,3.52
2022-11-07T23:13:22.723Z,3.52
2022-11-07T23:18:54.789Z,3.52
2022-11-07T23:24:26.515Z,3.52
2022-11-07T23:29:58.256Z,3.52
2022-11-07T23:35:30.061Z,3.52
2022-11-07T23:41:01.842Z,3.49
2022-11-07T23:46:35.340Z,3.49
2022-11-07T23:57:44.151Z,3.49
